sensor_id;sensor_type;location;lat;lon;timestamp;temperature;humidity
66190;DHT22;52992;52.084;5.412;2023-08-20T00:01:27;24.70;57.70
66190;DHT22;52992;52.084;5.412;2023-08-20T00:03:55;24.70;57.70
66190;DHT22;52992;52.084;5.412;2023-08-20T00:06:23;24.70;57.70
66190;DHT22;52992;52.084;5.412;2023-08-20T00:08:50;24.70;57.70
66190;DHT22;52992;52.084;5.412;2023-08-20T00:11:17;24.70;57.80
66190;DHT22;52992;52.084;5.412;2023-08-20T00:13:44;24.70;57.60
66190;DHT22;52992;52.084;5.412;2023-08-20T00:16:11;24.60;57.70
66190;DHT22;52992;52.084;5.412;2023-08-20T00:18:39;24.60;57.90
66190;DHT22;52992;52.084;5.412;2023-08-20T00:21:06;24.60;58.00
66190;DHT22;52992;52.084;5.412;2023-08-20T00:23:35;24.60;58.00
66190;DHT22;52992;52.084;5.412;2023-08-20T00:26:03;24.50;58.20
66190;DHT22;52992;52.084;5.412;2023-08-20T00:28:30;24.50;58.40
66190;DHT22;52992;52.084;5.412;2023-08-20T00:30:57;24.50;58.40
66190;DHT22;52992;52.084;5.412;2023-08-20T00:33:24;24.50;58.40
66190;DHT22;52992;52.084;5.412;2023-08-20T00:35:51;24.40;58.30
66190;DHT22;52992;52.084;5.412;2023-08-20T00:38:18;24.40;58.40
66190;DHT22;52992;52.084;5.412;2023-08-20T00:40:45;24.40;58.50
66190;DHT22;52992;52.084;5.412;2023-08-20T00:43:11;24.40;58.50
66190;DHT22;52992;52.084;5.412;2023-08-20T00:45:40;24.40;58.50
66190;DHT22;52992;52.084;5.412;2023-08-20T00:48:08;24.40;58.60
66190;DHT22;52992;52.084;5.412;2023-08-20T00:50:37;24.40;58.80
66190;DHT22;52992;52.084;5.412;2023-08-20T00:53:07;24.40;58.90
66190;DHT22;52992;52.084;5.412;2023-08-20T00:55:35;24.40;58.80
66190;DHT22;52992;52.084;5.412;2023-08-20T00:58:03;24.40;58.70
66190;DHT22;52992;52.084;5.412;2023-08-20T01:00:30;24.40;58.70
66190;DHT22;52992;52.084;5.412;2023-08-20T01:02:57;24.40;58.70
66190;DHT22;52992;52.084;5.412;2023-08-20T01:05:24;24.40;58.50
66190;DHT22;52992;52.084;5.412;2023-08-20T01:08:02;24.40;58.70
66190;DHT22;52992;52.084;5.412;2023-08-20T01:10:42;24.40;58.60
66190;DHT22;52992;52.084;5.412;2023-08-20T01:13:16;24.40;58.40
66190;DHT22;52992;52.084;5.412;2023-08-20T01:15:43;24.30;58.50
66190;DHT22;52992;52.084;5.412;2023-08-20T01:18:10;24.30;58.40
66190;DHT22;52992;52.084;5.412;2023-08-20T01:20:45;24.30;58.50
66190;DHT22;52992;52.084;5.412;2023-08-20T01:28:56;24.20;58.60
66190;DHT22;52992;52.084;5.412;2023-08-20T01:31:25;24.20;58.60
66190;DHT22;52992;52.084;5.412;2023-08-20T01:33:52;24.10;58.70
66190;DHT22;52992;52.084;5.412;2023-08-20T01:36:23;24.20;58.80
66190;DHT22;52992;52.084;5.412;2023-08-20T01:38:50;24.10;58.70
66190;DHT22;52992;52.084;5.412;2023-08-20T01:41:18;24.10;58.60
66190;DHT22;52992;52.084;5.412;2023-08-20T01:43:45;24.10;58.60
66190;DHT22;52992;52.084;5.412;2023-08-20T01:46:12;24.10;58.60
66190;DHT22;52992;52.084;5.412;2023-08-20T01:48:39;24.10;58.80
66190;DHT22;52992;52.084;5.412;2023-08-20T01:51:06;24.10;58.80
66190;DHT22;52992;52.084;5.412;2023-08-20T01:53:34;24.00;59.00
66190;DHT22;52992;52.084;5.412;2023-08-20T01:56:00;24.00;59.10
66190;DHT22;52992;52.084;5.412;2023-08-20T01:58:27;24.00;59.10
66190;DHT22;52992;52.084;5.412;2023-08-20T02:00:54;24.00;59.00
66190;DHT22;52992;52.084;5.412;2023-08-20T02:03:21;23.90;58.90
66190;DHT22;52992;52.084;5.412;2023-08-20T02:05:48;23.90;59.00
66190;DHT22;52992;52.084;5.412;2023-08-20T02:08:15;23.90;59.10
66190;DHT22;52992;52.084;5.412;2023-08-20T02:10:42;23.90;59.30
66190;DHT22;52992;52.084;5.412;2023-08-20T02:13:09;23.90;59.40
66190;DHT22;52992;52.084;5.412;2023-08-20T02:15:37;23.80;59.40
66190;DHT22;52992;52.084;5.412;2023-08-20T02:18:04;23.70;59.60
66190;DHT22;52992;52.084;5.412;2023-08-20T02:20:31;23.80;59.80
66190;DHT22;52992;52.084;5.412;2023-08-20T02:22:58;23.80;59.90
66190;DHT22;52992;52.084;5.412;2023-08-20T02:25:25;23.80;60.00
66190;DHT22;52992;52.084;5.412;2023-08-20T02:27:54;23.80;60.00
66190;DHT22;52992;52.084;5.412;2023-08-20T02:30:21;23.70;59.80
66190;DHT22;52992;52.084;5.412;2023-08-20T02:32:48;23.70;59.60
66190;DHT22;52992;52.084;5.412;2023-08-20T02:35:15;23.70;59.50
66190;DHT22;52992;52.084;5.412;2023-08-20T02:37:43;23.70;59.60
66190;DHT22;52992;52.084;5.412;2023-08-20T02:40:11;23.60;59.60
66190;DHT22;52992;52.084;5.412;2023-08-20T02:42:38;23.60;59.70
66190;DHT22;52992;52.084;5.412;2023-08-20T02:45:05;23.50;59.90
66190;DHT22;52992;52.084;5.412;2023-08-20T02:47:32;23.50;60.00
66190;DHT22;52992;52.084;5.412;2023-08-20T02:50:01;23.50;60.00
66190;DHT22;52992;52.084;5.412;2023-08-20T02:52:31;23.50;60.00
66190;DHT22;52992;52.084;5.412;2023-08-20T02:54:58;23.50;60.00
66190;DHT22;52992;52.084;5.412;2023-08-20T02:57:25;23.50;60.10
66190;DHT22;52992;52.084;5.412;2023-08-20T02:59:52;23.50;60.20
66190;DHT22;52992;52.084;5.412;2023-08-20T03:02:19;23.50;60.30
66190;DHT22;52992;52.084;5.412;2023-08-20T03:04:46;23.50;60.30
66190;DHT22;52992;52.084;5.412;2023-08-20T03:07:13;23.50;60.20
66190;DHT22;52992;52.084;5.412;2023-08-20T03:09:40;23.40;60.00
66190;DHT22;52992;52.084;5.412;2023-08-20T03:12:07;23.40;59.90
66190;DHT22;52992;52.084;5.412;2023-08-20T03:14:34;23.40;60.00
66190;DHT22;52992;52.084;5.412;2023-08-20T03:17:01;23.40;60.10
66190;DHT22;52992;52.084;5.412;2023-08-20T03:19:32;23.40;60.10
66190;DHT22;52992;52.084;5.412;2023-08-20T03:21:59;23.40;60.00
66190;DHT22;52992;52.084;5.412;2023-08-20T03:24:26;23.40;60.00
66190;DHT22;52992;52.084;5.412;2023-08-20T03:26:53;23.30;59.80
66190;DHT22;52992;52.084;5.412;2023-08-20T03:29:20;23.30;59.80
66190;DHT22;52992;52.084;5.412;2023-08-20T03:31:47;23.30;59.80
66190;DHT22;52992;52.084;5.412;2023-08-20T03:34:15;23.20;59.70
66190;DHT22;52992;52.084;5.412;2023-08-20T03:36:41;23.20;59.60
66190;DHT22;52992;52.084;5.412;2023-08-20T03:39:10;23.20;59.40
66190;DHT22;52992;52.084;5.412;2023-08-20T03:41:37;23.20;59.40
66190;DHT22;52992;52.084;5.412;2023-08-20T03:44:05;23.10;60.20
66190;DHT22;52992;52.084;5.412;2023-08-20T03:46:32;23.10;60.10
66190;DHT22;52992;52.084;5.412;2023-08-20T03:49:00;23.10;60.10
66190;DHT22;52992;52.084;5.412;2023-08-20T03:51:27;23.00;59.20
66190;DHT22;52992;52.084;5.412;2023-08-20T03:53:54;23.00;59.30
66190;DHT22;52992;52.084;5.412;2023-08-20T03:56:21;23.00;59.50
66190;DHT22;52992;52.084;5.412;2023-08-20T03:58:48;23.00;59.60
66190;DHT22;52992;52.084;5.412;2023-08-20T04:01:15;22.90;59.70
66190;DHT22;52992;52.084;5.412;2023-08-20T04:03:42;22.90;59.60
66190;DHT22;52992;52.084;5.412;2023-08-20T04:06:09;22.90;59.60
66190;DHT22;52992;52.084;5.412;2023-08-20T04:08:36;22.90;59.50
66190;DHT22;52992;52.084;5.412;2023-08-20T04:11:03;22.80;59.40
66190;DHT22;52992;52.084;5.412;2023-08-20T04:13:31;22.80;59.30
66190;DHT22;52992;52.084;5.412;2023-08-20T04:15:58;22.80;59.30
66190;DHT22;52992;52.084;5.412;2023-08-20T04:18:25;22.80;59.30
66190;DHT22;52992;52.084;5.412;2023-08-20T04:20:54;22.80;59.40
66190;DHT22;52992;52.084;5.412;2023-08-20T04:23:24;22.80;59.60
66190;DHT22;52992;52.084;5.412;2023-08-20T04:25:51;22.70;60.50
66190;DHT22;52992;52.084;5.412;2023-08-20T04:28:19;22.70;59.90
66190;DHT22;52992;52.084;5.412;2023-08-20T04:30:46;22.70;60.10
66190;DHT22;52992;52.084;5.412;2023-08-20T04:33:14;22.70;60.20
66190;DHT22;52992;52.084;5.412;2023-08-20T04:35:44;22.70;60.00
66190;DHT22;52992;52.084;5.412;2023-08-20T04:38:11;22.70;59.80
66190;DHT22;52992;52.084;5.412;2023-08-20T04:40:38;22.60;59.50
66190;DHT22;52992;52.084;5.412;2023-08-20T04:43:05;22.60;59.50
66190;DHT22;52992;52.084;5.412;2023-08-20T04:45:32;22.60;59.70
66190;DHT22;52992;52.084;5.412;2023-08-20T04:47:59;22.60;59.80
66190;DHT22;52992;52.084;5.412;2023-08-20T04:50:27;22.70;60.10
66190;DHT22;52992;52.084;5.412;2023-08-20T04:52:54;22.60;60.10
66190;DHT22;52992;52.084;5.412;2023-08-20T04:55:22;22.60;60.10
66190;DHT22;52992;52.084;5.412;2023-08-20T04:57:49;22.60;60.10
66190;DHT22;52992;52.084;5.412;2023-08-20T05:00:17;22.60;60.20
66190;DHT22;52992;52.084;5.412;2023-08-20T05:02:50;22.70;60.30
66190;DHT22;52992;52.084;5.412;2023-08-20T05:05:19;22.70;60.40
66190;DHT22;52992;52.084;5.412;2023-08-20T05:07:48;22.70;60.50
66190;DHT22;52992;52.084;5.412;2023-08-20T05:10:15;22.70;60.60
66190;DHT22;52992;52.084;5.412;2023-08-20T05:12:42;22.70;60.60
66190;DHT22;52992;52.084;5.412;2023-08-20T05:15:09;22.70;60.70
66190;DHT22;52992;52.084;5.412;2023-08-20T05:17:37;22.80;60.80
66190;DHT22;52992;52.084;5.412;2023-08-20T05:20:05;22.80;60.80
66190;DHT22;52992;52.084;5.412;2023-08-20T05:22:32;22.80;60.80
66190;DHT22;52992;52.084;5.412;2023-08-20T05:24:59;22.80;60.80
66190;DHT22;52992;52.084;5.412;2023-08-20T05:27:27;22.80;60.70
66190;DHT22;52992;52.084;5.412;2023-08-20T05:29:55;22.80;60.40
66190;DHT22;52992;52.084;5.412;2023-08-20T05:32:22;22.80;60.30
66190;DHT22;52992;52.084;5.412;2023-08-20T05:34:49;22.80;60.40
66190;DHT22;52992;52.084;5.412;2023-08-20T05:37:16;22.80;60.40
66190;DHT22;52992;52.084;5.412;2023-08-20T05:39:44;22.80;60.50
66190;DHT22;52992;52.084;5.412;2023-08-20T05:42:12;22.80;60.50
66190;DHT22;52992;52.084;5.412;2023-08-20T05:44:44;22.80;60.50
66190;DHT22;52992;52.084;5.412;2023-08-20T05:47:15;22.80;60.40
66190;DHT22;52992;52.084;5.412;2023-08-20T05:49:42;22.80;60.30
66190;DHT22;52992;52.084;5.412;2023-08-20T05:52:09;22.80;60.30
66190;DHT22;52992;52.084;5.412;2023-08-20T05:54:39;22.80;60.40
66190;DHT22;52992;52.084;5.412;2023-08-20T05:57:06;22.90;60.50
66190;DHT22;52992;52.084;5.412;2023-08-20T05:59:33;22.90;60.60
66190;DHT22;52992;52.084;5.412;2023-08-20T06:02:01;22.90;60.60
66190;DHT22;52992;52.084;5.412;2023-08-20T06:04:29;23.00;60.50
66190;DHT22;52992;52.084;5.412;2023-08-20T06:06:56;23.10;60.60
66190;DHT22;52992;52.084;5.412;2023-08-20T06:09:23;23.20;60.50
66190;DHT22;52992;52.084;5.412;2023-08-20T06:11:50;23.30;60.50
66190;DHT22;52992;52.084;5.412;2023-08-20T06:14:18;23.40;60.30
66190;DHT22;52992;52.084;5.412;2023-08-20T06:16:45;23.40;60.10
66190;DHT22;52992;52.084;5.412;2023-08-20T06:19:12;23.50;60.00
66190;DHT22;52992;52.084;5.412;2023-08-20T06:21:38;23.60;59.90
66190;DHT22;52992;52.084;5.412;2023-08-20T06:24:05;23.70;59.70
66190;DHT22;52992;52.084;5.412;2023-08-20T06:26:32;23.80;59.70
66190;DHT22;52992;52.084;5.412;2023-08-20T06:28:59;23.90;59.60
66190;DHT22;52992;52.084;5.412;2023-08-20T06:31:26;24.00;59.40
66190;DHT22;52992;52.084;5.412;2023-08-20T06:33:53;24.10;59.30
66190;DHT22;52992;52.084;5.412;2023-08-20T06:36:20;24.30;59.10
66190;DHT22;52992;52.084;5.412;2023-08-20T06:38:47;24.40;59.00
66190;DHT22;52992;52.084;5.412;2023-08-20T06:41:14;24.50;58.90
66190;DHT22;52992;52.084;5.412;2023-08-20T06:43:40;24.70;58.80
66190;DHT22;52992;52.084;5.412;2023-08-20T06:46:07;24.80;58.60
66190;DHT22;52992;52.084;5.412;2023-08-20T06:48:34;24.90;58.50
66190;DHT22;52992;52.084;5.412;2023-08-20T06:51:11;25.00;58.10
66190;DHT22;52992;52.084;5.412;2023-08-20T06:53:39;25.10;57.70
66190;DHT22;52992;52.084;5.412;2023-08-20T06:56:08;25.20;57.50
66190;DHT22;52992;52.084;5.412;2023-08-20T06:58:35;25.30;57.20
66190;DHT22;52992;52.084;5.412;2023-08-20T07:01:02;25.40;57.00
66190;DHT22;52992;52.084;5.412;2023-08-20T07:03:40;25.50;56.60
66190;DHT22;52992;52.084;5.412;2023-08-20T07:06:08;25.60;56.60
66190;DHT22;52992;52.084;5.412;2023-08-20T07:08:38;25.70;56.50
66190;DHT22;52992;52.084;5.412;2023-08-20T07:11:08;25.80;56.10
66190;DHT22;52992;52.084;5.412;2023-08-20T07:13:35;25.90;55.90
66190;DHT22;52992;52.084;5.412;2023-08-20T07:16:02;26.10;56.50
66190;DHT22;52992;52.084;5.412;2023-08-20T07:18:29;26.20;56.40
66190;DHT22;52992;52.084;5.412;2023-08-20T07:20:56;26.30;56.00
66190;DHT22;52992;52.084;5.412;2023-08-20T07:23:23;26.40;55.70
66190;DHT22;52992;52.084;5.412;2023-08-20T07:25:50;26.50;55.50
66190;DHT22;52992;52.084;5.412;2023-08-20T07:28:19;26.50;55.30
66190;DHT22;52992;52.084;5.412;2023-08-20T07:31:08;26.60;55.40
66190;DHT22;52992;52.084;5.412;2023-08-20T07:33:35;26.80;55.10
66190;DHT22;52992;52.084;5.412;2023-08-20T07:36:02;26.80;54.80
66190;DHT22;52992;52.084;5.412;2023-08-20T07:38:29;26.90;54.40
66190;DHT22;52992;52.084;5.412;2023-08-20T07:40:56;27.00;55.10
66190;DHT22;52992;52.084;5.412;2023-08-20T07:43:24;27.10;54.60
66190;DHT22;52992;52.084;5.412;2023-08-20T07:45:51;27.20;54.50
66190;DHT22;52992;52.084;5.412;2023-08-20T07:48:18;27.40;54.50
66190;DHT22;52992;52.084;5.412;2023-08-20T07:50:45;27.50;53.80
66190;DHT22;52992;52.084;5.412;2023-08-20T07:53:12;27.60;53.60
66190;DHT22;52992;52.084;5.412;2023-08-20T07:55:39;27.60;53.40
66190;DHT22;52992;52.084;5.412;2023-08-20T07:58:06;27.80;53.10
66190;DHT22;52992;52.084;5.412;2023-08-20T08:00:32;27.80;52.60
66190;DHT22;52992;52.084;5.412;2023-08-20T08:02:59;27.80;52.50
66190;DHT22;52992;52.084;5.412;2023-08-20T08:05:26;27.90;52.50
66190;DHT22;52992;52.084;5.412;2023-08-20T08:07:53;27.90;51.90
66190;DHT22;52992;52.084;5.412;2023-08-20T08:10:20;27.90;51.30
66190;DHT22;52992;52.084;5.412;2023-08-20T08:12:47;28.00;51.90
66190;DHT22;52992;52.084;5.412;2023-08-20T08:15:14;28.00;52.20
66190;DHT22;52992;52.084;5.412;2023-08-20T08:17:41;28.10;51.60
66190;DHT22;52992;52.084;5.412;2023-08-20T08:20:08;28.10;51.50
66190;DHT22;52992;52.084;5.412;2023-08-20T08:22:35;28.10;51.40
66190;DHT22;52992;52.084;5.412;2023-08-20T08:25:02;28.20;51.20
66190;DHT22;52992;52.084;5.412;2023-08-20T08:27:29;28.20;51.20
66190;DHT22;52992;52.084;5.412;2023-08-20T08:29:56;28.30;51.10
66190;DHT22;52992;52.084;5.412;2023-08-20T08:32:23;28.30;51.40
66190;DHT22;52992;52.084;5.412;2023-08-20T08:34:50;28.40;51.90
66190;DHT22;52992;52.084;5.412;2023-08-20T08:37:17;28.50;50.40
66190;DHT22;52992;52.084;5.412;2023-08-20T08:39:44;28.60;51.10
66190;DHT22;52992;52.084;5.412;2023-08-20T08:42:12;28.60;50.00
66190;DHT22;52992;52.084;5.412;2023-08-20T08:44:39;28.70;49.70
66190;DHT22;52992;52.084;5.412;2023-08-20T08:47:07;28.80;50.00
66190;DHT22;52992;52.084;5.412;2023-08-20T08:49:34;28.80;50.40
66190;DHT22;52992;52.084;5.412;2023-08-20T08:52:02;28.90;50.10
66190;DHT22;52992;52.084;5.412;2023-08-20T08:54:30;29.00;51.20
66190;DHT22;52992;52.084;5.412;2023-08-20T08:56:59;29.10;51.50
66190;DHT22;52992;52.084;5.412;2023-08-20T08:59:26;29.20;50.70
66190;DHT22;52992;52.084;5.412;2023-08-20T09:01:53;29.40;51.00
66190;DHT22;52992;52.084;5.412;2023-08-20T09:04:20;29.50;50.90
66190;DHT22;52992;52.084;5.412;2023-08-20T09:06:49;29.60;50.30
66190;DHT22;52992;52.084;5.412;2023-08-20T09:09:20;29.70;50.10
66190;DHT22;52992;52.084;5.412;2023-08-20T09:11:48;29.90;50.20
66190;DHT22;52992;52.084;5.412;2023-08-20T09:14:28;30.00;50.80
66190;DHT22;52992;52.084;5.412;2023-08-20T09:17:00;30.00;50.80
66190;DHT22;52992;52.084;5.412;2023-08-20T09:19:29;30.20;50.00
66190;DHT22;52992;52.084;5.412;2023-08-20T09:22:00;30.40;49.90
66190;DHT22;52992;52.084;5.412;2023-08-20T09:24:33;30.70;47.60
66190;DHT22;52992;52.084;5.412;2023-08-20T09:27:04;31.20;46.10
66190;DHT22;52992;52.084;5.412;2023-08-20T09:29:32;31.80;44.90
66190;DHT22;52992;52.084;5.412;2023-08-20T09:32:01;32.20;44.10
66190;DHT22;52992;52.084;5.412;2023-08-20T09:34:38;32.40;43.70
66190;DHT22;52992;52.084;5.412;2023-08-20T09:37:09;32.50;43.50
66190;DHT22;52992;52.084;5.412;2023-08-20T09:39:36;32.70;43.30
66190;DHT22;52992;52.084;5.412;2023-08-20T09:42:09;32.80;41.80
66190;DHT22;52992;52.084;5.412;2023-08-20T09:44:39;32.80;41.80
66190;DHT22;52992;52.084;5.412;2023-08-20T09:47:14;32.80;42.00
66190;DHT22;52992;52.084;5.412;2023-08-20T09:49:43;32.90;41.00
66190;DHT22;52992;52.084;5.412;2023-08-20T09:52:12;32.90;39.90
66190;DHT22;52992;52.084;5.412;2023-08-20T09:54:59;32.90;39.80
66190;DHT22;52992;52.084;5.412;2023-08-20T09:57:40;33.10;39.50
66190;DHT22;52992;52.084;5.412;2023-08-20T10:00:12;33.20;39.00
66190;DHT22;52992;52.084;5.412;2023-08-20T10:02:43;33.50;38.90
66190;DHT22;52992;52.084;5.412;2023-08-20T10:05:11;33.80;37.80
66190;DHT22;52992;52.084;5.412;2023-08-20T10:07:39;34.00;38.00
66190;DHT22;52992;52.084;5.412;2023-08-20T10:10:08;34.20;38.00
66190;DHT22;52992;52.084;5.412;2023-08-20T10:12:36;34.30;37.30
66190;DHT22;52992;52.084;5.412;2023-08-20T10:15:04;34.50;37.40
66190;DHT22;52992;52.084;5.412;2023-08-20T10:17:33;34.80;37.40
66190;DHT22;52992;52.084;5.412;2023-08-20T10:20:03;35.00;37.20
66190;DHT22;52992;52.084;5.412;2023-08-20T10:22:41;35.20;35.30
66190;DHT22;52992;52.084;5.412;2023-08-20T10:25:25;35.20;34.80
66190;DHT22;52992;52.084;5.412;2023-08-20T10:27:52;35.30;34.50
66190;DHT22;52992;52.084;5.412;2023-08-20T10:30:25;35.20;34.90
66190;DHT22;52992;52.084;5.412;2023-08-20T10:32:54;35.10;34.50
66190;DHT22;52992;52.084;5.412;2023-08-20T10:35:27;35.10;35.60
66190;DHT22;52992;52.084;5.412;2023-08-20T10:38:07;35.10;35.50
66190;DHT22;52992;52.084;5.412;2023-08-20T10:40:54;35.10;35.00
66190;DHT22;52992;52.084;5.412;2023-08-20T10:46:16;35.10;35.30
66190;DHT22;52992;52.084;5.412;2023-08-20T10:48:57;35.10;34.40
66190;DHT22;52992;52.084;5.412;2023-08-20T10:51:28;35.20;33.70
66190;DHT22;52992;52.084;5.412;2023-08-20T10:54:03;35.10;34.50
66190;DHT22;52992;52.084;5.412;2023-08-20T10:56:55;34.90;34.10
66190;DHT22;52992;52.084;5.412;2023-08-20T10:59:25;34.70;34.70
66190;DHT22;52992;52.084;5.412;2023-08-20T11:01:54;34.60;34.80
66190;DHT22;52992;52.084;5.412;2023-08-20T11:04:31;34.30;33.80
66190;DHT22;52992;52.084;5.412;2023-08-20T11:07:00;33.70;33.10
66190;DHT22;52992;52.084;5.412;2023-08-20T11:09:29;33.40;33.10
66190;DHT22;52992;52.084;5.412;2023-08-20T11:11:56;33.20;33.40
66190;DHT22;52992;52.084;5.412;2023-08-20T11:14:24;33.00;32.40
66190;DHT22;52992;52.084;5.412;2023-08-20T11:16:51;32.80;33.20
66190;DHT22;52992;52.084;5.412;2023-08-20T11:19:20;32.50;34.00
66190;DHT22;52992;52.084;5.412;2023-08-20T11:21:48;32.10;34.30
66190;DHT22;52992;52.084;5.412;2023-08-20T11:24:15;31.70;35.10
66190;DHT22;52992;52.084;5.412;2023-08-20T11:26:43;31.30;36.20
66190;DHT22;52992;52.084;5.412;2023-08-20T11:29:15;31.00;36.60
66190;DHT22;52992;52.084;5.412;2023-08-20T11:31:50;30.80;36.80
66190;DHT22;52992;52.084;5.412;2023-08-20T11:34:20;30.50;37.80
66190;DHT22;52992;52.084;5.412;2023-08-20T11:36:48;30.80;36.80
66190;DHT22;52992;52.084;5.412;2023-08-20T11:39:16;31.00;37.30
66190;DHT22;52992;52.084;5.412;2023-08-20T11:41:43;30.90;36.30
66190;DHT22;52992;52.084;5.412;2023-08-20T11:44:11;30.70;34.90
66190;DHT22;52992;52.084;5.412;2023-08-20T11:46:44;30.80;35.80
66190;DHT22;52992;52.084;5.412;2023-08-20T11:49:12;30.90;36.10
66190;DHT22;52992;52.084;5.412;2023-08-20T11:51:41;30.80;36.30
66190;DHT22;52992;52.084;5.412;2023-08-20T11:54:11;30.70;36.40
66190;DHT22;52992;52.084;5.412;2023-08-20T11:56:51;30.70;36.90
66190;DHT22;52992;52.084;5.412;2023-08-20T11:59:20;30.70;37.00
66190;DHT22;52992;52.084;5.412;2023-08-20T12:02:01;30.70;37.10
66190;DHT22;52992;52.084;5.412;2023-08-20T12:04:30;30.50;37.70
66190;DHT22;52992;52.084;5.412;2023-08-20T12:07:13;30.40;37.60
66190;DHT22;52992;52.084;5.412;2023-08-20T12:09:40;30.10;38.50
66190;DHT22;52992;52.084;5.412;2023-08-20T12:12:09;30.00;39.20
66190;DHT22;52992;52.084;5.412;2023-08-20T12:14:36;30.00;39.40
66190;DHT22;52992;52.084;5.412;2023-08-20T12:17:03;30.00;38.50
66190;DHT22;52992;52.084;5.412;2023-08-20T12:19:30;30.10;38.00
66190;DHT22;52992;52.084;5.412;2023-08-20T12:21:57;30.20;37.80
66190;DHT22;52992;52.084;5.412;2023-08-20T12:24:24;30.20;37.60
66190;DHT22;52992;52.084;5.412;2023-08-20T12:26:52;30.20;37.90
66190;DHT22;52992;52.084;5.412;2023-08-20T12:29:20;30.10;37.80
66190;DHT22;52992;52.084;5.412;2023-08-20T12:31:47;30.00;37.40
66190;DHT22;52992;52.084;5.412;2023-08-20T12:34:14;29.90;37.50
66190;DHT22;52992;52.084;5.412;2023-08-20T12:36:40;29.80;38.00
66190;DHT22;52992;52.084;5.412;2023-08-20T12:39:08;29.70;38.40
66190;DHT22;52992;52.084;5.412;2023-08-20T12:41:35;29.60;38.30
66190;DHT22;52992;52.084;5.412;2023-08-20T12:44:03;29.60;38.30
66190;DHT22;52992;52.084;5.412;2023-08-20T12:46:30;29.70;38.40
66190;DHT22;52992;52.084;5.412;2023-08-20T12:48:57;29.70;37.50
66190;DHT22;52992;52.084;5.412;2023-08-20T12:51:24;29.50;37.90
66190;DHT22;52992;52.084;5.412;2023-08-20T12:53:51;29.50;38.00
66190;DHT22;52992;52.084;5.412;2023-08-20T12:56:18;29.50;39.00
66190;DHT22;52992;52.084;5.412;2023-08-20T12:58:45;29.60;39.10
66190;DHT22;52992;52.084;5.412;2023-08-20T13:01:12;29.60;38.80
66190;DHT22;52992;52.084;5.412;2023-08-20T13:03:39;29.70;38.30
66190;DHT22;52992;52.084;5.412;2023-08-20T13:06:06;29.70;38.40
66190;DHT22;52992;52.084;5.412;2023-08-20T13:08:34;29.60;38.60
66190;DHT22;52992;52.084;5.412;2023-08-20T13:11:01;29.50;37.30
66190;DHT22;52992;52.084;5.412;2023-08-20T13:13:32;29.60;36.50
66190;DHT22;52992;52.084;5.412;2023-08-20T13:16:01;29.60;36.30
66190;DHT22;52992;52.084;5.412;2023-08-20T13:18:29;29.70;35.50
66190;DHT22;52992;52.084;5.412;2023-08-20T13:20:56;29.80;36.00
66190;DHT22;52992;52.084;5.412;2023-08-20T13:23:23;30.00;36.40
66190;DHT22;52992;52.084;5.412;2023-08-20T13:25:50;30.10;36.80
66190;DHT22;52992;52.084;5.412;2023-08-20T13:28:18;30.20;37.30
66190;DHT22;52992;52.084;5.412;2023-08-20T13:30:45;30.10;36.80
66190;DHT22;52992;52.084;5.412;2023-08-20T13:33:13;30.00;36.10
66190;DHT22;52992;52.084;5.412;2023-08-20T13:35:41;30.00;35.80
66190;DHT22;52992;52.084;5.412;2023-08-20T13:38:08;29.90;35.20
66190;DHT22;52992;52.084;5.412;2023-08-20T13:40:36;29.80;35.40
66190;DHT22;52992;52.084;5.412;2023-08-20T13:43:03;29.60;36.70
66190;DHT22;52992;52.084;5.412;2023-08-20T13:45:30;29.50;36.20
66190;DHT22;52992;52.084;5.412;2023-08-20T13:47:57;29.50;36.50
66190;DHT22;52992;52.084;5.412;2023-08-20T13:50:24;29.60;36.60
66190;DHT22;52992;52.084;5.412;2023-08-20T13:52:51;29.70;36.70
66190;DHT22;52992;52.084;5.412;2023-08-20T13:55:18;29.80;37.30
66190;DHT22;52992;52.084;5.412;2023-08-20T13:57:45;29.90;37.60
66190;DHT22;52992;52.084;5.412;2023-08-20T14:00:14;30.00;37.50
66190;DHT22;52992;52.084;5.412;2023-08-20T14:02:41;29.90;37.60
66190;DHT22;52992;52.084;5.412;2023-08-20T14:05:08;29.90;37.70
66190;DHT22;52992;52.084;5.412;2023-08-20T14:07:35;30.00;37.80
66190;DHT22;52992;52.084;5.412;2023-08-20T14:10:03;30.10;36.60
66190;DHT22;52992;52.084;5.412;2023-08-20T14:12:31;30.10;36.70
66190;DHT22;52992;52.084;5.412;2023-08-20T14:14:58;30.20;36.80
66190;DHT22;52992;52.084;5.412;2023-08-20T14:17:25;30.20;36.10
66190;DHT22;52992;52.084;5.412;2023-08-20T14:19:52;30.20;36.00
66190;DHT22;52992;52.084;5.412;2023-08-20T14:22:19;30.30;36.20
66190;DHT22;52992;52.084;5.412;2023-08-20T14:24:46;30.20;35.80
66190;DHT22;52992;52.084;5.412;2023-08-20T14:27:13;30.10;35.90
66190;DHT22;52992;52.084;5.412;2023-08-20T14:29:41;30.00;36.40
66190;DHT22;52992;52.084;5.412;2023-08-20T14:32:08;29.90;36.30
66190;DHT22;52992;52.084;5.412;2023-08-20T14:34:35;29.80;36.20
66190;DHT22;52992;52.084;5.412;2023-08-20T14:37:02;29.70;36.50
66190;DHT22;52992;52.084;5.412;2023-08-20T14:39:30;29.60;37.00
66190;DHT22;52992;52.084;5.412;2023-08-20T14:41:58;29.50;36.90
66190;DHT22;52992;52.084;5.412;2023-08-20T14:44:25;29.50;36.90
66190;DHT22;52992;52.084;5.412;2023-08-20T14:46:52;29.50;36.80
66190;DHT22;52992;52.084;5.412;2023-08-20T14:49:19;29.50;37.10
66190;DHT22;52992;52.084;5.412;2023-08-20T14:51:46;29.50;36.90
66190;DHT22;52992;52.084;5.412;2023-08-20T14:54:14;29.50;36.70
66190;DHT22;52992;52.084;5.412;2023-08-20T14:56:41;29.40;37.80
66190;DHT22;52992;52.084;5.412;2023-08-20T14:59:08;29.50;37.90
66190;DHT22;52992;52.084;5.412;2023-08-20T15:01:36;29.50;37.20
66190;DHT22;52992;52.084;5.412;2023-08-20T15:04:03;29.60;37.50
66190;DHT22;52992;52.084;5.412;2023-08-20T15:06:30;29.60;37.20
66190;DHT22;52992;52.084;5.412;2023-08-20T15:08:57;29.60;37.10
66190;DHT22;52992;52.084;5.412;2023-08-20T15:11:24;29.60;37.20
66190;DHT22;52992;52.084;5.412;2023-08-20T15:13:51;29.70;37.00
66190;DHT22;52992;52.084;5.412;2023-08-20T15:16:18;29.70;37.20
66190;DHT22;52992;52.084;5.412;2023-08-20T15:18:46;29.70;37.40
66190;DHT22;52992;52.084;5.412;2023-08-20T15:21:12;29.80;37.10
66190;DHT22;52992;52.084;5.412;2023-08-20T15:23:39;29.80;37.10
66190;DHT22;52992;52.084;5.412;2023-08-20T15:26:06;29.80;37.00
66190;DHT22;52992;52.084;5.412;2023-08-20T15:28:34;29.80;36.60
66190;DHT22;52992;52.084;5.412;2023-08-20T15:31:01;29.80;36.80
66190;DHT22;52992;52.084;5.412;2023-08-20T15:33:28;29.80;36.10
66190;DHT22;52992;52.084;5.412;2023-08-20T15:35:58;29.80;35.90
66190;DHT22;52992;52.084;5.412;2023-08-20T15:38:26;29.80;36.10
66190;DHT22;52992;52.084;5.412;2023-08-20T15:40:56;29.80;35.90
66190;DHT22;52992;52.084;5.412;2023-08-20T15:43:25;29.80;36.10
66190;DHT22;52992;52.084;5.412;2023-08-20T15:45:52;29.90;35.90